createdAt,value
2022-08-08T00:01:06.482Z,61.61
2022-08-08T00:02:57.027Z,61.65
2022-08-08T00:04:56.178Z,62.05
2022-08-08T00:08:17.499Z,62.35
2022-08-08T00:10:17.451Z,63.29
2022-08-08T00:12:24.632Z,61.27
2022-08-08T00:14:48.710Z,62.08
2022-08-08T00:16:18.818Z,61.68
2022-08-08T00:18:18.891Z,61.68
2022-08-08T00:20:18.048Z,61.68
2022-08-08T00:22:18.110Z,62.79
2022-08-08T00:24:18.247Z,61.88
2022-08-08T00:26:26.292Z,61.37
2022-08-08T00:28:35.529Z,61.98
2022-08-08T00:30:19.588Z,61.98
2022-08-08T00:32:35.683Z,62.28
2022-08-08T00:34:20.296Z,62.68
2022-08-08T00:36:19.117Z,61.98
2022-08-08T00:38:31.817Z,62.38
2022-08-08T00:41:12.143Z,61.68
2022-08-08T00:42:34.621Z,61.27
2022-08-08T00:44:20.871Z,62.68
2022-08-08T00:46:19.586Z,62.48
2022-08-08T00:48:29.848Z,61.57
2022-08-08T00:50:20.809Z,62.38
2022-08-08T00:52:20.563Z,61.51
2022-08-08T00:54:19.965Z,62.82
2022-08-08T00:56:20.670Z,62.92
2022-08-08T00:58:20.563Z,61.80
2022-08-08T01:00:22.369Z,62.62
2022-08-08T01:03:53.959Z,62.71
2022-08-08T01:04:21.568Z,63.22
2022-08-08T01:06:27.181Z,63.65
2022-08-08T01:08:21.765Z,63.76
2022-08-08T01:10:21.934Z,63.15
2022-08-08T01:12:25.725Z,63.96
2022-08-08T01:14:53.577Z,64.26
2022-08-08T01:16:28.026Z,63.45
2022-08-08T01:18:50.587Z,63.55
2022-08-08T01:20:22.470Z,63.55
2022-08-08T01:22:23.618Z,63.96
2022-08-08T01:24:22.659Z,63.55
2022-08-08T01:26:24.139Z,64.49
2022-08-08T01:28:28.091Z,64.59
2022-08-08T01:30:22.953Z,65.00
2022-08-08T01:32:22.081Z,65.00
2022-08-08T01:34:22.208Z,64.93
2022-08-08T01:36:23.304Z,65.23
2022-08-08T01:38:22.391Z,64.83
2022-08-08T01:40:22.501Z,64.93
2022-08-08T01:42:36.547Z,66.14
2022-08-08T01:44:23.722Z,65.13
2022-08-08T01:46:22.866Z,65.53
2022-08-08T01:48:30.977Z,65.33
2022-08-08T01:50:26.848Z,65.23
2022-08-08T01:53:50.711Z,65.03
2022-08-08T01:55:26.746Z,65.94
2022-08-08T01:56:31.008Z,65.94
2022-08-08T01:58:38.165Z,66.24
2022-08-08T02:00:24.602Z,66.85
2022-08-08T02:02:34.875Z,66.38
2022-08-08T02:04:24.792Z,66.67
2022-08-08T02:06:33.097Z,67.18
2022-08-08T02:08:25.010Z,66.17
2022-08-08T02:10:29.834Z,67.59
2022-08-08T02:12:25.314Z,66.98
2022-08-08T02:14:24.330Z,66.38
2022-08-08T02:16:24.445Z,66.78
2022-08-08T02:18:24.629Z,67.18
2022-08-08T02:21:00.073Z,66.58
2022-08-08T02:22:28.380Z,67.29
2022-08-08T02:24:25.883Z,67.11
2022-08-08T02:26:24.982Z,67.93
2022-08-08T02:28:25.967Z,67.22
2022-08-08T02:30:26.164Z,67.72
2022-08-08T02:32:32.142Z,68.63
2022-08-08T02:34:27.486Z,68.13
2022-08-08T02:36:26.514Z,67.52
2022-08-08T02:38:30.025Z,67.52
2022-08-08T02:40:25.774Z,68.63
2022-08-08T02:42:36.232Z,69.48
2022-08-08T02:44:42.373Z,68.56
2022-08-08T02:46:27.042Z,67.65
2022-08-08T02:48:27.496Z,68.06
2022-08-08T02:50:26.285Z,67.96
2022-08-08T02:52:42.843Z,67.65
2022-08-08T02:54:27.920Z,68.26
2022-08-08T02:56:26.646Z,68.26
2022-08-08T02:58:26.917Z,67.65
2022-08-08T03:00:31.610Z,67.96
2022-08-08T03:02:30.241Z,68.77
2022-08-08T03:05:03.849Z,69.78
2022-08-08T03:06:34.790Z,69.20
2022-08-08T03:08:28.364Z,68.80
2022-08-08T03:10:32.806Z,69.17
2022-08-08T03:12:36.787Z,69.61
2022-08-08T03:15:59.350Z,70.83
2022-08-08T03:16:35.955Z,69.81
2022-08-08T03:18:31.348Z,70.72
2022-08-08T03:20:28.167Z,71.53
2022-08-08T03:22:38.563Z,71.23
2022-08-08T03:24:29.388Z,71.67
2022-08-08T03:26:30.651Z,71.57
2022-08-08T03:28:28.656Z,70.96
2022-08-08T03:30:28.770Z,70.76
2022-08-08T03:32:30.556Z,70.05
2022-08-08T03:34:28.989Z,71.30
2022-08-08T03:36:30.282Z,70.48
2022-08-08T03:38:53.874Z,70.89
2022-08-08T03:40:32.087Z,71.60
2022-08-08T03:42:30.822Z,71.00
2022-08-08T03:44:29.452Z,70.69
2022-08-08T03:46:30.808Z,71.20
2022-08-08T03:49:09.515Z,71.09
2022-08-08T03:50:30.774Z,72.21
2022-08-08T03:52:30.089Z,72.14
2022-08-08T03:54:40.633Z,72.04
2022-08-08T03:56:32.576Z,71.44
2022-08-08T03:58:37.507Z,71.94
2022-08-08T04:00:31.447Z,72.34
2022-08-08T04:02:36.609Z,72.96
2022-08-08T04:04:31.768Z,71.64
2022-08-08T04:06:30.916Z,71.44
2022-08-08T04:08:33.822Z,71.53
2022-08-08T04:10:32.136Z,73.16
2022-08-08T04:12:31.620Z,73.16
2022-08-08T04:14:35.517Z,72.34
2022-08-08T04:17:59.170Z,72.55
2022-08-08T04:19:48.969Z,73.09
2022-08-08T04:21:48.108Z,72.69
2022-08-08T04:24:12.173Z,72.48
2022-08-08T04:25:49.384Z,72.58
2022-08-08T04:28:10.575Z,72.58
2022-08-08T04:29:55.505Z,72.89
2022-08-08T04:31:58.862Z,72.78
2022-08-08T04:33:50.026Z,72.58
2022-08-08T04:35:50.975Z,73.50
2022-08-08T04:37:49.312Z,72.89
2022-08-08T04:40:06.735Z,73.80
2022-08-08T04:41:50.600Z,73.19
2022-08-08T04:43:54.203Z,74.10
2022-08-08T04:45:50.880Z,74.01
2022-08-08T04:47:49.902Z,73.46
2022-08-08T04:50:01.155Z,73.66
2022-08-08T04:51:57.390Z,72.75
2022-08-08T04:54:27.102Z,73.66
2022-08-08T04:55:56.021Z,73.77
2022-08-08T04:57:51.604Z,73.26
2022-08-08T04:59:50.713Z,73.66
2022-08-08T05:01:50.878Z,73.57
2022-08-08T05:04:08.454Z,74.07
2022-08-08T05:05:53.478Z,74.58
2022-08-08T05:07:51.223Z,75.09
2022-08-08T05:09:52.369Z,76.20
2022-08-08T05:11:56.603Z,75.39
2022-08-08T05:13:57.995Z,75.70
2022-08-08T05:16:52.825Z,74.04
2022-08-08T05:17:53.634Z,74.95
2022-08-08T05:20:12.329Z,74.95
2022-08-08T05:21:59.562Z,75.35
2022-08-08T05:24:03.033Z,74.85
2022-08-08T05:25:57.272Z,75.46
2022-08-08T05:27:54.866Z,75.76
2022-08-08T05:29:52.708Z,74.74
2022-08-08T05:32:03.895Z,75.15
2022-08-08T05:33:54.014Z,75.46
2022-08-08T05:35:53.222Z,75.76
2022-08-08T05:37:54.476Z,75.32
2022-08-08T05:39:53.406Z,74.71
2022-08-08T05:41:54.859Z,74.07
2022-08-08T05:44:03.635Z,73.66
2022-08-08T05:45:55.203Z,73.46
2022-08-08T05:48:00.039Z,72.65
2022-08-08T05:49:56.212Z,72.75
2022-08-08T05:51:54.243Z,72.81
2022-08-08T05:54:26.920Z,73.73
2022-08-08T05:56:10.272Z,70.79
2022-08-08T05:58:04.067Z,70.72
2022-08-08T06:00:01.114Z,71.94
2022-08-08T06:01:58.023Z,73.12
2022-08-08T06:03:55.687Z,74.24
2022-08-08T06:05:56.719Z,71.20
2022-08-08T06:08:00.198Z,69.95
2022-08-08T06:10:00.993Z,69.34
2022-08-08T06:11:56.551Z,69.65
2022-08-08T06:13:55.663Z,70.15
2022-08-08T06:15:55.815Z,69.61
2022-08-08T06:18:18.415Z,69.61
2022-08-08T06:19:57.042Z,69.58
2022-08-08T06:21:57.607Z,69.48
2022-08-08T06:24:03.311Z,67.90
2022-08-08T06:26:43.673Z,65.45
2022-08-08T06:27:57.456Z,62.51
2022-08-08T06:30:01.119Z,59.47
2022-08-08T06:32:10.056Z,57.79
2022-08-08T06:34:25.822Z,54.47
2022-08-08T06:36:06.335Z,53.49
2022-08-08T06:37:58.087Z,51.87
2022-08-08T06:39:57.356Z,51.75
2022-08-08T06:41:57.360Z,53.19
2022-08-08T06:43:57.668Z,50.42
2022-08-08T06:45:57.602Z,51.15
2022-08-08T06:48:01.131Z,53.84
2022-08-08T06:49:57.782Z,52.64
2022-08-08T06:51:58.242Z,51.64
2022-08-08T06:54:00.802Z,53.42
2022-08-08T06:56:02.853Z,52.02
2022-08-08T06:58:00.726Z,49.82
2022-08-08T07:00:10.712Z,51.25
2022-08-08T07:02:27.548Z,52.94
2022-08-08T07:04:36.749Z,52.49
2022-08-08T07:06:02.203Z,52.47
2022-08-08T07:07:58.890Z,51.12
2022-08-08T07:09:59.573Z,51.52
2022-08-08T07:11:59.158Z,49.43
2022-08-08T07:14:00.794Z,53.02
2022-08-08T07:16:05.377Z,51.20
2022-08-08T07:18:02.051Z,50.82
2022-08-08T07:20:00.586Z,49.83
2022-08-08T07:22:05.536Z,47.92
2022-08-08T07:24:02.827Z,48.61
2022-08-08T07:25:59.927Z,50.08
2022-08-08T07:28:02.459Z,47.57
2022-08-08T07:30:05.978Z,49.19
2022-08-08T07:32:01.725Z,48.29
2022-08-08T07:34:00.417Z,46.88
2022-08-08T07:36:00.546Z,46.58
2022-08-08T07:38:10.517Z,48.66
2022-08-08T07:40:02.680Z,47.70
2022-08-08T07:42:03.981Z,46.53
2022-08-08T07:44:01.744Z,50.52
2022-08-08T07:46:18.081Z,48.37
2022-08-08T07:48:02.240Z,50.06
2022-08-08T07:50:01.360Z,46.60
2022-08-08T07:52:01.495Z,43.71
2022-08-08T07:54:03.537Z,45.49
2022-08-08T07:56:01.753Z,41.73
2022-08-08T07:58:01.868Z,43.29
2022-08-08T08:00:01.987Z,44.14
2022-08-08T08:02:34.999Z,41.53
2022-08-08T08:04:03.281Z,39.56
2022-08-08T08:06:02.405Z,39.48
2022-08-08T08:08:02.489Z,41.02
2022-08-08T08:10:02.733Z,40.86
2022-08-08T08:12:02.790Z,38.46
2022-08-08T08:14:08.328Z,37.97
2022-08-08T08:16:04.375Z,40.03
2022-08-08T08:18:03.174Z,37.44
2022-08-08T08:20:03.299Z,37.15
2022-08-08T08:22:07.771Z,36.93
2022-08-08T08:24:03.789Z,37.72
2022-08-08T08:26:03.692Z,36.34
2022-08-08T08:28:03.865Z,36.72
2022-08-08T08:30:03.976Z,38.35
2022-08-08T08:32:05.678Z,35.39
2022-08-08T08:34:04.224Z,35.94
2022-08-08T08:36:19.524Z,35.03
2022-08-08T08:38:17.166Z,33.05
2022-08-08T08:40:05.683Z,32.84
2022-08-08T08:42:04.823Z,33.26
2022-08-08T08:44:14.018Z,33.26
2022-08-08T08:46:06.016Z,33.31
2022-08-08T08:48:05.117Z,34.49
2022-08-08T08:50:10.685Z,33.18
2022-08-08T08:52:06.345Z,33.10
2022-08-08T08:54:05.467Z,32.73
2022-08-08T08:56:05.672Z,32.90
2022-08-08T08:58:05.763Z,34.24
2022-08-08T09:00:15.234Z,32.17
2022-08-08T09:02:07.026Z,32.76
2022-08-08T09:04:06.081Z,34.03
2022-08-08T09:06:19.307Z,31.36
2022-08-08T09:08:12.832Z,32.03
2022-08-08T09:10:11.094Z,33.98
2022-08-08T09:12:08.570Z,33.48
2022-08-08T09:14:06.735Z,30.24
2022-08-08T09:16:06.807Z,30.42
2022-08-08T09:18:06.949Z,30.11
2022-08-08T09:21:58.691Z,29.54
2022-08-08T09:22:08.223Z,30.44
2022-08-08T09:24:07.815Z,31.09
2022-08-08T09:26:12.434Z,28.94
2022-08-08T09:28:07.582Z,30.18
2022-08-08T09:30:07.704Z,29.08
2022-08-08T09:32:11.943Z,29.18
2022-08-08T09:34:31.566Z,28.66
2022-08-08T09:36:09.050Z,27.31
2022-08-08T09:38:17.517Z,29.62
2022-08-08T09:40:11.216Z,27.28
2022-08-08T09:42:19.967Z,28.15
2022-08-08T09:44:13.110Z,27.67
2022-08-08T09:46:11.278Z,26.73
2022-08-08T09:48:21.053Z,28.82
2022-08-08T09:50:13.675Z,29.64
2022-08-08T09:52:16.247Z,28.57
2022-08-08T09:54:14.113Z,29.53
2022-08-08T09:56:12.305Z,26.50
2022-08-08T09:58:09.779Z,27.64
2022-08-08T10:00:32.934Z,27.33
2022-08-08T10:02:14.464Z,25.47
2022-08-08T10:04:09.901Z,25.54
2022-08-08T10:06:10.001Z,27.00
2022-08-08T10:08:10.180Z,25.26
2022-08-08T10:10:10.192Z,27.11
2022-08-08T10:12:27.930Z,27.98
2022-08-08T10:14:28.084Z,25.37
2022-08-08T10:16:11.749Z,26.33
2022-08-08T10:18:17.054Z,26.12
2022-08-08T10:20:17.151Z,25.25
2022-08-08T10:22:10.829Z,25.54
2022-08-08T10:24:28.276Z,25.34
2022-08-08T10:26:26.063Z,25.43
2022-08-08T10:28:15.177Z,24.35
2022-08-08T10:30:23.590Z,26.31
2022-08-08T10:32:12.412Z,25.90
2022-08-08T10:34:20.209Z,23.87
2022-08-08T10:36:20.796Z,24.84
2022-08-08T10:38:13.744Z,25.04
2022-08-08T10:40:11.999Z,24.17
2022-08-08T10:42:15.423Z,24.27
2022-08-08T10:44:12.415Z,25.23
2022-08-08T10:46:29.671Z,24.56
2022-08-08T10:48:13.432Z,24.83
2022-08-08T10:50:15.311Z,25.13
2022-08-08T10:52:12.631Z,25.79
2022-08-08T10:54:12.746Z,24.62
2022-08-08T10:56:15.910Z,26.56
2022-08-08T10:58:13.990Z,24.23
2022-08-08T11:00:13.110Z,24.13
2022-08-08T11:02:13.360Z,23.95
2022-08-08T11:04:13.431Z,24.15
2022-08-08T11:06:14.040Z,24.07
2022-08-08T11:08:37.971Z,24.87
2022-08-08T11:10:19.871Z,24.57
2022-08-08T11:12:14.923Z,24.28
2022-08-08T11:14:16.319Z,23.71
2022-08-08T11:16:32.355Z,24.16
2022-08-08T11:18:15.262Z,26.68
2022-08-08T11:20:14.493Z,23.05
2022-08-08T11:22:14.601Z,26.55
2022-08-08T11:24:14.700Z,25.08
2022-08-08T11:26:19.190Z,23.90
2022-08-08T11:28:18.601Z,23.31
2022-08-08T11:30:24.047Z,23.49
2022-08-08T11:32:16.339Z,24.58
2022-08-08T11:34:24.423Z,23.90
2022-08-08T11:36:16.616Z,23.42
2022-08-08T11:38:35.633Z,25.29
2022-08-08T11:40:16.959Z,25.19
2022-08-08T11:42:16.993Z,23.44
2022-08-08T11:44:16.425Z,25.08
2022-08-08T11:46:18.308Z,23.03
2022-08-08T11:48:20.311Z,24.21
2022-08-08T11:50:16.593Z,24.67
2022-08-08T11:52:18.492Z,25.03
2022-08-08T11:54:31.552Z,24.26
2022-08-08T11:56:18.019Z,23.59
2022-08-08T11:58:17.228Z,24.39
2022-08-08T12:00:17.298Z,23.62
2022-08-08T12:02:31.659Z,23.90
2022-08-08T12:04:18.612Z,25.08
2022-08-08T12:06:17.716Z,24.21
2022-08-08T12:08:17.824Z,24.71
2022-08-08T12:10:18.062Z,24.80
2022-08-08T12:12:22.461Z,23.25
2022-08-08T12:14:19.246Z,24.84
2022-08-08T12:16:18.347Z,24.35
2022-08-08T12:18:21.629Z,26.15
2022-08-08T12:20:19.694Z,24.90
2022-08-08T12:22:33.481Z,25.12
2022-08-08T12:24:19.879Z,27.67
2022-08-08T12:26:27.492Z,25.45
2022-08-08T12:28:20.049Z,28.38
2022-08-08T12:30:24.929Z,26.60
2022-08-08T12:32:21.010Z,26.89
2022-08-08T12:34:20.442Z,27.88
2022-08-08T12:36:20.656Z,26.71
2022-08-08T12:38:19.753Z,25.81
2022-08-08T12:40:22.910Z,26.40
2022-08-08T12:42:21.148Z,26.22
2022-08-08T12:44:32.268Z,26.89
2022-08-08T12:46:26.147Z,27.27
2022-08-08T12:48:37.243Z,25.61
2022-08-08T12:50:21.796Z,26.49
2022-08-08T12:52:28.762Z,26.70
2022-08-08T12:54:24.174Z,26.39
2022-08-08T12:56:24.172Z,26.78
2022-08-08T12:58:21.105Z,28.23
2022-08-08T13:00:22.172Z,26.40
2022-08-08T13:02:22.197Z,26.82
2022-08-08T13:04:24.433Z,27.01
2022-08-08T13:06:21.381Z,27.73
2022-08-08T13:08:22.893Z,27.91
2022-08-08T13:10:28.227Z,28.19
2022-08-08T13:12:37.141Z,28.55
2022-08-08T13:14:22.889Z,26.60
2022-08-08T13:16:25.209Z,27.20
2022-08-08T13:18:27.370Z,27.69
2022-08-08T13:20:23.258Z,27.98
2022-08-08T13:22:24.571Z,28.77
2022-08-08T13:24:38.514Z,26.81
2022-08-08T13:26:24.798Z,27.62
2022-08-08T13:28:22.669Z,28.12
2022-08-08T13:30:26.315Z,29.02
2022-08-08T13:32:28.608Z,30.18
2022-08-08T13:34:33.324Z,30.10
2022-08-08T13:36:26.223Z,30.19
2022-08-08T13:38:23.229Z,30.37
2022-08-08T13:40:27.272Z,29.59
2022-08-08T13:42:23.478Z,29.38
2022-08-08T13:44:23.549Z,27.55
2022-08-08T13:46:26.533Z,28.06
2022-08-08T13:48:25.845Z,29.55
2022-08-08T13:50:36.437Z,31.01
2022-08-08T13:52:37.615Z,30.62
2022-08-08T13:54:29.460Z,29.05
2022-08-08T13:56:25.344Z,29.75
2022-08-08T13:58:24.393Z,30.04
2022-08-08T14:00:24.523Z,30.42
2022-08-08T14:02:33.325Z,30.71
2022-08-08T14:04:25.950Z,29.62
2022-08-08T14:06:34.048Z,29.33
2022-08-08T14:08:29.754Z,29.82
2022-08-08T14:10:33.557Z,30.10
2022-08-08T14:12:26.286Z,29.70
2022-08-08T14:14:26.317Z,29.00
2022-08-08T14:16:25.549Z,28.03
2022-08-08T14:18:36.331Z,28.33
2022-08-08T14:20:58.059Z,29.41
2022-08-08T14:22:26.856Z,29.60
2022-08-08T14:24:26.052Z,29.33
2022-08-08T14:26:28.221Z,28.74
2022-08-08T14:28:29.259Z,29.34
2022-08-08T14:30:26.361Z,30.04
2022-08-08T14:32:29.981Z,30.55
2022-08-08T14:34:27.760Z,30.94
2022-08-08T14:36:26.674Z,29.86
2022-08-08T14:38:34.177Z,30.35
2022-08-08T14:40:28.041Z,31.23
2022-08-08T14:42:27.085Z,30.74
2022-08-08T14:44:30.361Z,30.35
2022-08-08T14:46:32.669Z,30.14
2022-08-08T14:48:38.760Z,29.93
2022-08-08T14:50:38.020Z,29.63
2022-08-08T14:52:28.710Z,29.06
2022-08-08T14:54:29.543Z,30.04
2022-08-08T14:56:27.855Z,30.63
2022-08-08T14:58:27.936Z,29.73
2022-08-08T15:00:28.070Z,30.42
2022-08-08T15:02:30.994Z,29.73
2022-08-08T15:04:28.257Z,30.70
2022-08-08T15:06:28.418Z,29.03
2022-08-08T15:08:34.370Z,29.34
2022-08-08T15:10:29.680Z,29.83
2022-08-08T15:12:28.822Z,28.96
2022-08-08T15:14:28.930Z,30.05
2022-08-08T15:16:29.085Z,30.35
2022-08-08T15:18:29.837Z,30.25
2022-08-08T15:20:29.312Z,30.65
2022-08-08T15:22:29.467Z,30.55
2022-08-08T15:24:31.569Z,29.86
2022-08-08T15:26:29.721Z,30.05
2022-08-08T15:28:33.532Z,30.74
2022-08-08T15:30:29.977Z,29.68
2022-08-08T15:32:31.659Z,30.17
2022-08-08T15:34:32.166Z,31.05
2022-08-08T15:36:30.312Z,30.17
2022-08-08T15:38:30.407Z,30.25
2022-08-08T15:40:30.559Z,29.47
2022-08-08T15:42:31.685Z,30.27
2022-08-08T15:44:31.787Z,30.47
2022-08-08T15:46:34.795Z,30.85
2022-08-08T15:48:31.146Z,30.68
2022-08-08T15:50:31.188Z,30.38
2022-08-08T15:52:33.170Z,30.68
2022-08-08T15:54:38.822Z,31.66
2022-08-08T15:56:32.602Z,30.87
2022-08-08T15:58:31.912Z,30.58
2022-08-08T16:00:31.793Z,31.36
2022-08-08T16:02:32.318Z,30.68
2022-08-08T16:04:32.053Z,30.97
2022-08-08T16:06:32.146Z,31.77
2022-08-08T16:08:32.335Z,31.49
2022-08-08T16:13:09.239Z,31.49
2022-08-08T16:13:15.032Z,30.90
2022-08-08T16:14:33.889Z,32.08
2022-08-08T16:16:32.790Z,31.59
2022-08-08T16:18:33.080Z,32.08
2022-08-08T16:20:33.068Z,31.98
2022-08-08T16:22:33.191Z,32.67
2022-08-08T16:24:33.319Z,32.08
2022-08-08T16:26:35.335Z,33.65
2022-08-08T16:28:35.364Z,32.57
2022-08-08T16:30:36.693Z,32.48
2022-08-08T16:32:34.045Z,32.59
2022-08-08T16:34:34.052Z,33.28
2022-08-08T16:36:34.411Z,33.38
2022-08-08T16:38:34.333Z,32.90
2022-08-08T16:40:34.607Z,33.98
2022-08-08T16:42:34.940Z,34.69
2022-08-08T16:44:34.759Z,34.99
2022-08-08T16:46:36.386Z,34.89
2022-08-08T16:48:37.030Z,34.79
2022-08-08T16:50:35.170Z,35.38
2022-08-08T16:55:03.427Z,35.58
2022-08-08T16:55:05.270Z,35.28
2022-08-08T16:56:36.527Z,35.38
2022-08-08T16:58:36.674Z,35.30
2022-08-08T17:00:35.848Z,35.30
2022-08-08T17:02:44.555Z,35.60
2022-08-08T17:04:37.173Z,35.89
2022-08-08T17:06:43.818Z,35.81
2022-08-08T17:08:37.324Z,36.68
2022-08-08T17:10:36.495Z,37.27
2022-08-08T17:12:37.380Z,36.60
2022-08-08T17:14:36.779Z,37.19
2022-08-08T17:16:36.931Z,37.41
2022-08-08T17:18:37.043Z,37.30
2022-08-08T17:20:38.109Z,37.11
2022-08-08T17:22:39.109Z,38.31
2022-08-08T17:24:38.451Z,38.12
2022-08-08T17:26:37.585Z,37.82
2022-08-08T17:28:37.746Z,37.64
2022-08-08T17:30:37.871Z,38.13
2022-08-08T17:33:43.864Z,39.32
2022-08-08T17:34:54.738Z,38.25
2022-08-08T17:36:44.177Z,38.45
2022-08-08T17:38:39.451Z,38.25
2022-08-08T17:40:38.610Z,38.47
2022-08-08T17:42:38.711Z,39.36
2022-08-08T17:44:39.810Z,39.26
2022-08-08T17:46:39.939Z,38.76
2022-08-08T17:48:39.082Z,39.56
2022-08-08T17:50:39.229Z,39.67
2022-08-08T17:52:43.006Z,39.08
2022-08-08T17:54:39.474Z,38.68
2022-08-08T17:56:39.622Z,39.79
2022-08-08T17:58:39.762Z,39.79
2022-08-08T18:00:41.378Z,39.59
2022-08-08T18:02:40.106Z,40.11
2022-08-08T18:04:47.835Z,39.71
2022-08-08T18:06:43.091Z,39.91
2022-08-08T18:08:41.984Z,40.50
2022-08-08T18:10:40.607Z,41.02
2022-08-08T18:12:40.749Z,40.42
2022-08-08T18:14:40.895Z,40.52
2022-08-08T18:16:41.288Z,41.44
2022-08-08T18:18:45.148Z,41.73
2022-08-08T18:20:54.576Z,41.53
2022-08-08T18:22:50.915Z,40.84
2022-08-08T18:24:42.621Z,41.26
2022-08-08T18:26:42.684Z,41.06
2022-08-08T18:28:54.717Z,41.17
2022-08-08T18:30:43.019Z,41.47
2022-08-08T18:32:43.211Z,42.27
2022-08-08T18:34:42.599Z,41.30
2022-08-08T18:36:44.378Z,41.99
2022-08-08T18:38:42.498Z,41.99
2022-08-08T18:40:42.622Z,42.19
2022-08-08T18:42:45.607Z,42.39
2022-08-08T18:44:55.826Z,43.01
2022-08-08T18:46:55.465Z,43.20
2022-08-08T18:48:44.169Z,43.30
2022-08-08T18:50:50.067Z,43.13
2022-08-08T18:52:44.462Z,42.93
2022-08-08T18:54:44.553Z,43.92
2022-08-08T18:56:44.681Z,43.92
2022-08-08T18:58:43.832Z,43.15
2022-08-08T19:00:46.518Z,44.14
2022-08-08T19:02:54.757Z,43.64
2022-08-08T19:04:45.210Z,43.64
2022-08-08T19:06:47.014Z,43.66
2022-08-08T19:08:45.578Z,43.66
2022-08-08T19:10:44.621Z,43.96
2022-08-08T19:12:53.223Z,43.76
2022-08-08T19:14:45.997Z,43.86
2022-08-08T19:16:45.029Z,44.16
2022-08-08T19:18:51.812Z,44.26
2022-08-08T19:20:46.519Z,44.38
2022-08-08T19:22:45.273Z,44.28
2022-08-08T19:25:21.354Z,43.88
2022-08-08T19:26:50.992Z,43.88
2022-08-08T19:28:46.649Z,44.18
2022-08-08T19:30:51.422Z,44.58
2022-08-08T19:32:46.813Z,44.48
2022-08-08T19:34:45.912Z,44.08
2022-08-08T19:36:46.013Z,44.48
2022-08-08T19:38:46.441Z,44.50
2022-08-08T19:40:46.321Z,44.70
2022-08-08T19:42:46.376Z,45.00
2022-08-08T19:44:50.207Z,44.50
2022-08-08T19:46:46.697Z,44.70
2022-08-08T19:48:46.718Z,44.82
2022-08-08T19:50:46.982Z,44.72
2022-08-08T19:52:54.395Z,45.12
2022-08-08T19:54:51.201Z,45.52
2022-08-08T19:56:48.956Z,45.52
2022-08-08T19:58:51.891Z,45.12
2022-08-08T20:00:47.538Z,45.32
2022-08-08T20:02:50.463Z,45.54
2022-08-08T20:04:47.758Z,45.64
2022-08-08T20:06:47.890Z,45.54
2022-08-08T20:08:48.774Z,45.74
2022-08-08T20:10:48.198Z,45.74
2022-08-08T20:12:59.226Z,45.94
2022-08-08T20:14:51.647Z,45.96
2022-08-08T20:16:48.550Z,46.36
2022-08-08T20:18:52.763Z,46.16
2022-08-08T20:20:49.842Z,46.96
2022-08-08T20:22:53.820Z,46.36
2022-08-08T20:24:49.984Z,46.56
2022-08-08T20:26:49.541Z,46.66
2022-08-08T20:28:51.042Z,47.18
2022-08-08T20:30:55.893Z,46.88
2022-08-08T20:32:50.482Z,46.98
2022-08-08T20:34:53.550Z,47.08
2022-08-08T20:36:49.650Z,46.98
2022-08-08T20:38:50.443Z,47.28
2022-08-08T20:40:51.211Z,47.28
2022-08-08T20:42:49.987Z,47.38
2022-08-08T20:44:50.054Z,47.38
2022-08-08T20:46:50.188Z,47.58
2022-08-08T20:48:50.253Z,47.90
2022-08-08T20:50:50.676Z,47.40
2022-08-08T20:52:50.610Z,47.80
2022-08-08T20:54:50.714Z,47.80
2022-08-08T20:57:04.638Z,48.00
2022-08-08T20:58:51.836Z,48.50
2022-08-08T21:00:50.961Z,48.40
2022-08-08T21:02:52.793Z,48.30
2022-08-08T21:04:51.133Z,47.92
2022-08-08T21:06:52.789Z,48.32
2022-08-08T21:08:51.608Z,48.32
2022-08-08T21:10:53.602Z,48.43
2022-08-08T21:12:53.044Z,48.22
2022-08-08T21:14:51.690Z,48.13
2022-08-08T21:16:51.826Z,49.02
2022-08-08T21:18:51.953Z,49.62
2022-08-08T21:20:52.073Z,49.02
2022-08-08T21:22:52.233Z,48.72
2022-08-08T21:24:53.706Z,48.93
2022-08-08T21:26:52.430Z,49.95
2022-08-08T21:28:53.036Z,49.15
2022-08-08T21:30:52.738Z,49.15
2022-08-08T21:32:53.356Z,49.74
2022-08-08T21:34:56.516Z,49.85
2022-08-08T21:36:53.071Z,50.35
2022-08-08T21:38:53.186Z,49.87
2022-08-08T21:40:54.796Z,50.47
2022-08-08T21:42:53.501Z,51.47
2022-08-08T21:44:58.420Z,51.39
2022-08-08T21:48:03.820Z,52.59
2022-08-08T21:48:55.812Z,53.22
2022-08-08T21:50:53.891Z,52.22
2022-08-08T21:54:32.732Z,53.42
2022-08-08T21:55:03.234Z,52.64
2022-08-08T21:56:55.208Z,52.94
2022-08-08T21:58:55.484Z,52.55
2022-08-08T22:00:54.940Z,54.24
2022-08-08T22:02:54.573Z,54.64
2022-08-08T22:04:55.745Z,53.87
2022-08-08T22:06:54.871Z,54.27
2022-08-08T22:08:54.936Z,55.27
2022-08-08T22:10:55.061Z,54.97
2022-08-08T22:12:59.912Z,55.30
2022-08-08T22:14:56.315Z,55.90
2022-08-08T22:16:55.421Z,56.40
2022-08-08T22:18:55.559Z,56.70
2022-08-08T22:20:55.721Z,57.73
2022-08-08T22:22:55.792Z,57.43
2022-08-08T22:24:55.889Z,57.96
2022-08-08T22:27:02.314Z,58.96
2022-08-08T22:29:14.681Z,58.76
2022-08-08T22:30:57.218Z,58.56
2022-08-08T22:32:56.373Z,59.46
2022-08-08T22:34:56.440Z,59.59
2022-08-08T22:36:56.560Z,60.10
2022-08-08T22:38:56.655Z,60.22
2022-08-08T22:40:56.760Z,60.52
2022-08-08T22:42:56.904Z,61.33
2022-08-08T22:44:57.019Z,61.76
2022-08-08T22:46:57.183Z,61.55
2022-08-08T22:48:57.276Z,62.66
2022-08-08T22:50:57.381Z,62.69
2022-08-08T22:54:15.753Z,62.59
2022-08-08T22:55:05.191Z,63.32
2022-08-08T22:56:58.672Z,63.12
2022-08-08T22:58:57.820Z,63.12
2022-08-08T23:00:57.925Z,63.12
2022-08-08T23:02:58.085Z,62.42
2022-08-08T23:05:01.996Z,62.15
2022-08-08T23:07:02.600Z,63.25
2022-08-08T23:09:00.434Z,64.36
2022-08-08T23:11:06.217Z,64.69
2022-08-08T23:12:59.806Z,64.49
2022-08-08T23:15:10.586Z,63.68
2022-08-08T23:16:59.879Z,64.09
2022-08-08T23:19:00.068Z,64.09
2022-08-08T23:20:59.089Z,64.29
2022-08-08T23:22:59.201Z,65.19
2022-08-08T23:24:59.349Z,64.89
2022-08-08T23:26:59.432Z,64.89
2022-08-08T23:28:59.550Z,65.12
2022-08-08T23:30:59.690Z,65.93
2022-08-08T23:32:59.761Z,65.22
2022-08-08T23:34:59.868Z,65.22
2022-08-08T23:37:00.751Z,65.36
2022-08-08T23:39:00.083Z,65.46
2022-08-08T23:41:00.361Z,65.46
2022-08-08T23:43:04.220Z,64.95
2022-08-08T23:45:00.505Z,65.16
2022-08-08T23:49:04.179Z,65.56
2022-08-08T23:49:18.526Z,64.86
2022-08-08T23:51:01.911Z,65.16
2022-08-08T23:53:03.478Z,65.56
2022-08-08T23:55:13.987Z,65.66
2022-08-08T23:57:02.500Z,64.55
2022-08-08T23:59:02.616Z,64.42
